Lake Milton, OH (44429)

15:02 EST le 30 janvier 2015 (GMT -0500)
KOHBERLI2 | Change Station
CLOSE
Current Station
Stations météorologiques personnelles
Location: Berlin Center, OH
Altitude: 1053 ft
Stations météo à proximité
Avis météorologiques actifs: Winter Storm Watch Préavis actif: Public Information Statement

Alt. 1053 ft 41.07 °N, 80.95 °W | Updated 7 seconds ago

Couvert
Couvert
15.6 ° F
Paraît 2 ° F
N
12.0
Vent Variable Vent de NO
Gusts 15.0 mph

Aujourd'hui
Haut(e) -- | Bas -- ° F
--% Risque de précip.
Hier
Haut(e) -- | Bas -- ° F
Precip. -- pouce
7:36 AM 5:38 PM
Lune gibbeuse croissante, 84% visible
Pression 30.34 pouce
Visibilité 3.0 Miles terrestres
Nuages Couvert 2100 ft
Refroidissement éolien 2 ° F
Point de rosée 1 ° F
Humidité 52%
Précipitations 0.00 pouce
Profondeur de la couche neigeuse Non disponible.
UV 1 sur 12
Pollen .10 sur 12
Qualité de l'air Non disponible.
Flu Activity Non disponible.
METAR KPOV 301955Z AUTO 32011G19KT 3SM -SN OVC021 M10/M14 A3034 RMK AO2 T10961144

More Conditions Fewer Conditions

Pression 30.34 pouce
Visibilité 3.0 Miles terrestres
Nuages Couvert 2100 ft
Refroidissement éolien 2 ° F
Point de rosée 1 ° F
Humidité 52%
Précipitations 0.00 pouce
Profondeur de la couche neigeuse Non disponible.
UV 1 sur 12
Pollen .10 sur 12
Qualité de l'air Non disponible.
Flu Activity Non disponible.
METAR KPOV 301955Z AUTO 32011G19KT 3SM -SN OVC021 M10/M14 A3034 RMK AO2 T10961144

More Conditions Fewer Conditions

10-Day Weather Forecast

Almanac

Astronomie

Jan. 30, 2015 Lever Coucher
Temps réel
Crépuscule civil
Crépuscule nautique
Crépuscule astronomique
Lune
Durée de lumière visible
Longueur du jour
Tomorrow will be .
, % of the Moon is Illuminated

Extrêmes aujourd'hui

State Highs State Lows

Community

WunderPhotos

Upload Photos

1,791,882 Photos téléchargées !

WunderBlogs® & News

Nearby

Qualité de l'air

  Qualité de l'air Indice de la qualité de l'air Polluant
Not available.

Épaisseur de neige

Station Depth Altitude

Activité sismique

Ville Distance Mag. Time & Date
Minimum magnitude displayed is 2.5.

Températures des eaux côtières

Lieu Température

Stations météo à proximité